Time;durP1;ratioP1;P1;durP2;ratioP2;P2;SDS_P1;SDS_P2;PMS_P1;PMS_P2;Temp;Humidity;BMP_temperature;BMP_pressure;BME280_temperature;BME280_humidity;BME280_pressure;Samples;Min_cycle;Max_cycle;Signal;HPM_P1;HPM_P2
2022/12/26 00:00:37;;;;;;;7.28;5.00;;;;;;;;;;4868707;29;20591;-81
2022/12/26 00:03:04;;;;;;;4.75;4.30;;;;;;;;;;4869198;29;20053;-81
2022/12/26 00:05:38;;;;;;;8.02;4.90;;;;;;;;;;4885602;29;20148;-82
2022/12/26 00:08:06;;;;;;;4.15;3.78;;;;;;;;;;4846414;29;20054;-82
2022/12/26 00:10:34;;;;;;;6.00;4.43;;;;;;;;;;4866192;29;20105;-83
2022/12/26 00:13:01;;;;;;;5.60;3.80;;;;;;;;;;4849407;29;20049;-83
2022/12/26 00:15:48;;;;;;;15.35;5.05;;;;;;;;;;4878675;29;20774;-82
2022/12/26 00:18:17;;;;;;;9.77;4.60;;;;;;;;;;4883054;29;20056;-82
2022/12/26 00:20:44;;;;;;;5.50;3.53;;;;;;;;;;4860653;29;20505;-82
2022/12/26 00:23:11;;;;;;;7.25;4.50;;;;;;;;;;4862066;29;20490;-82
2022/12/26 00:25:38;;;;;;;11.65;4.53;;;;;;;;;;4863173;29;20053;-82
2022/12/26 00:28:06;;;;;;;18.55;4.28;;;;;;;;;;4863753;29;20049;-83
2022/12/26 00:30:33;;;;;;;19.70;4.60;;;;;;;;;;4869908;29;20041;-83
2022/12/26 00:33:00;;;;;;;9.38;3.97;;;;;;;;;;4882924;29;20044;-82
2022/12/26 00:35:27;;;;;;;15.30;3.85;;;;;;;;;;4878831;29;20049;-82
2022/12/26 00:37:55;;;;;;;10.77;4.55;;;;;;;;;;4863944;29;20579;-82
2022/12/26 00:40:22;;;;;;;18.58;5.07;;;;;;;;;;4863068;29;20109;-82
2022/12/26 00:42:49;;;;;;;8.13;3.85;;;;;;;;;;4878644;29;20141;-83
2022/12/26 00:45:16;;;;;;;7.95;3.80;;;;;;;;;;4842570;29;20041;-81
2022/12/26 00:47:44;;;;;;;6.07;3.80;;;;;;;;;;4886391;29;20559;-81
2022/12/26 00:50:11;;;;;;;10.90;4.28;;;;;;;;;;4884535;29;20040;-82
2022/12/26 00:52:42;;;;;;;7.72;4.15;;;;;;;;;;4885952;29;20048;-82
2022/12/26 00:55:10;;;;;;;10.88;4.00;;;;;;;;;;4884748;29;20049;-82
2022/12/26 00:57:37;;;;;;;7.95;4.22;;;;;;;;;;4881210;29;20096;-82
2022/12/26 01:00:05;;;;;;;6.97;3.83;;;;;;;;;;4882516;29;20121;-81
2022/12/26 01:02:38;;;;;;;10.90;4.00;;;;;;;;;;4882553;29;20597;-82
2022/12/26 01:05:09;;;;;;;7.90;4.13;;;;;;;;;;4881285;29;20131;-83
2022/12/26 01:07:37;;;;;;;5.95;3.80;;;;;;;;;;4882381;29;20056;-82
2022/12/26 01:10:25;;;;;;;11.90;4.55;;;;;;;;;;4880013;29;20044;-82
2022/12/26 01:12:52;;;;;;;4.72;4.22;;;;;;;;;;4879608;29;20052;-81
2022/12/26 01:15:22;;;;;;;8.45;3.75;;;;;;;;;;4858964;29;20052;-81
2022/12/26 01:17:49;;;;;;;5.20;3.15;;;;;;;;;;4862527;29;20045;-82
2022/12/26 01:20:17;;;;;;;10.57;4.05;;;;;;;;;;4863291;29;20113;-83
2022/12/26 01:22:44;;;;;;;10.70;4.30;;;;;;;;;;4879318;29;20132;-82
2022/12/26 01:25:12;;;;;;;16.17;4.63;;;;;;;;;;4879346;29;20045;-83
2022/12/26 01:27:39;;;;;;;9.15;4.40;;;;;;;;;;4878232;29;20049;-83
2022/12/26 01:30:09;;;;;;;9.88;5.60;;;;;;;;;;4862610;29;20057;-82
2022/12/26 01:32:39;;;;;;;10.90;4.47;;;;;;;;;;4876974;29;20033;-83
2022/12/26 01:35:07;;;;;;;8.60;4.35;;;;;;;;;;4881769;29;20511;-83
2022/12/26 01:37:35;;;;;;;4.32;3.30;;;;;;;;;;4884319;29;20049;-83
2022/12/26 01:40:03;;;;;;;7.32;4.18;;;;;;;;;;4884892;29;20518;-82
2022/12/26 01:42:35;;;;;;;5.93;3.50;;;;;;;;;;4867048;29;20041;-83
2022/12/26 01:45:03;;;;;;;6.85;4.10;;;;;;;;;;4866058;29;20049;-83
2022/12/26 01:47:38;;;;;;;5.93;4.88;;;;;;;;;;4881476;29;20103;-83
2022/12/26 01:50:06;;;;;;;13.05;4.47;;;;;;;;;;4862553;29;20060;-83
2022/12/26 01:52:42;;;;;;;7.90;3.92;;;;;;;;;;4863223;29;20088;-82
2022/12/26 01:55:11;;;;;;;11.32;4.28;;;;;;;;;;4863243;29;20527;-83
2022/12/26 01:57:42;;;;;;;8.82;4.65;;;;;;;;;;4879133;29;20049;-83
2022/12/26 02:00:15;;;;;;;4.75;3.92;;;;;;;;;;4877323;29;20048;-82
2022/12/26 02:05:36;;;;;;;10.98;5.20;;;;;;;;;;4877127;29;20074;-82
2022/12/26 02:08:09;;;;;;;10.93;5.13;;;;;;;;;;4888570;29;20135;-82
2022/12/26 02:10:47;;;;;;;5.55;3.67;;;;;;;;;;4893543;29;20093;-82
2022/12/26 02:13:15;;;;;;;6.68;4.03;;;;;;;;;;4878718;29;20045;-82
2022/12/26 02:15:46;;;;;;;6.78;4.72;;;;;;;;;;4891595;29;20123;-82
2022/12/26 02:18:13;;;;;;;7.55;3.70;;;;;;;;;;4863905;29;20511;-82
2022/12/26 02:20:46;;;;;;;14.82;4.38;;;;;;;;;;4864934;29;20060;-82
2022/12/26 02:23:37;;;;;;;9.57;4.50;;;;;;;;;;4847625;29;20046;-83
2022/12/26 02:26:20;;;;;;;6.35;4.03;;;;;;;;;;4842767;29;20071;-82
2022/12/26 02:29:13;;;;;;;21.05;4.55;;;;;;;;;;4861147;29;20046;-83
2022/12/26 02:32:06;;;;;;;6.03;3.47;;;;;;;;;;5070356;28;20394;-82
2022/12/26 02:34:48;;;;;;;11.50;4.57;;;;;;;;;;5060776;28;20024;-82
2022/12/26 02:37:26;;;;;;;13.38;3.90;;;;;;;;;;5049320;28;20046;-83
2022/12/26 02:39:53;;;;;;;11.00;4.05;;;;;;;;;;5047103;28;20108;-83
2022/12/26 02:42:27;;;;;;;20.42;4.80;;;;;;;;;;5029185;28;20057;-82
2022/12/26 02:47:54;;;;;;;4.53;3.58;;;;;;;;;;5051519;28;20501;-82
2022/12/26 03:13:51;;;;;;;13.98;3.72;;;;;;;;;;5027122;28;20095;-82
2022/12/26 03:19:09;;;;;;;14.55;3.90;;;;;;;;;;5024410;28;20513;-83
2022/12/26 03:21:39;;;;;;;14.25;3.28;;;;;;;;;;5049787;28;20037;-82
2022/12/26 03:24:09;;;;;;;28.08;4.53;;;;;;;;;;5056522;28;20064;-82
2022/12/26 03:26:38;;;;;;;6.32;3.15;;;;;;;;;;5051735;28;20045;-82
2022/12/26 03:31:57;;;;;;;19.42;3.65;;;;;;;;;;5049401;28;20097;-83
2022/12/26 03:34:24;;;;;;;11.35;3.95;;;;;;;;;;5048750;28;20045;-83
2022/12/26 03:37:10;;;;;;;14.95;3.92;;;;;;;;;;5031878;28;20443;-83
2022/12/26 04:41:34;;;;;;;12.55;3.65;;;;;;;;;;5034536;28;20088;-82
2022/12/26 04:46:22;;;;;;;16.75;3.70;;;;;;;;;;5032746;28;20416;-82
2022/12/26 04:51:37;;;;;;;28.58;4.25;;;;;;;;;;5039268;28;20049;-82
2022/12/26 04:54:05;;;;;;;3.60;2.55;;;;;;;;;;5040303;28;20042;-82
2022/12/26 04:56:32;;;;;;;12.55;3.65;;;;;;;;;;5044102;28;20045;-82
2022/12/26 04:59:00;;;;;;;24.77;4.20;;;;;;;;;;5040852;28;20052;-82
2022/12/26 05:09:52;;;;;;;16.58;4.43;;;;;;;;;;5010620;28;20042;-83
2022/12/26 05:12:19;;;;;;;15.70;4.03;;;;;;;;;;5009492;28;20092;-83
2022/12/26 05:14:46;;;;;;;20.30;4.82;;;;;;;;;;5010397;28;20042;-83
2022/12/26 05:31:07;;;;;;;14.20;4.45;;;;;;;;;;5035644;28;20134;-83
2022/12/26 05:36:21;;;;;;;15.82;4.28;;;;;;;;;;5038261;28;20267;-83
2022/12/26 05:38:48;;;;;;;21.98;4.78;;;;;;;;;;5038215;28;20057;-83
2022/12/26 05:41:16;;;;;;;13.25;3.92;;;;;;;;;;5038600;28;20053;-82
2022/12/26 05:43:43;;;;;;;13.15;4.38;;;;;;;;;;5034650;28;20045;-82
2022/12/26 05:46:11;;;;;;;14.23;3.88;;;;;;;;;;5039442;28;20493;-82
2022/12/26 05:48:38;;;;;;;13.95;4.38;;;;;;;;;;5038010;28;20045;-82
2022/12/26 05:51:06;;;;;;;6.13;3.40;;;;;;;;;;5029712;28;20045;-81
2022/12/26 05:53:34;;;;;;;16.67;3.85;;;;;;;;;;5029461;28;20160;-82
2022/12/26 05:56:03;;;;;;;10.73;4.13;;;;;;;;;;5029492;28;20523;-83
2022/12/26 05:58:31;;;;;;;5.38;3.47;;;;;;;;;;5028526;28;20045;-83
2022/12/26 06:01:06;;;;;;;14.35;4.20;;;;;;;;;;5037537;28;20417;-81
2022/12/26 06:03:34;;;;;;;12.48;3.88;;;;;;;;;;5041150;28;20041;-82
2022/12/26 06:06:02;;;;;;;8.48;3.38;;;;;;;;;;5014599;28;20084;-82
2022/12/26 06:08:29;;;;;;;10.85;3.67;;;;;;;;;;5031817;28;20432;-83
2022/12/26 06:10:57;;;;;;;14.20;3.42;;;;;;;;;;5032313;28;20052;-83
2022/12/26 06:13:24;;;;;;;11.35;4.72;;;;;;;;;;5033585;28;20501;-81
2022/12/26 06:15:51;;;;;;;12.55;3.95;;;;;;;;;;5016829;28;20053;-82
2022/12/26 06:18:19;;;;;;;16.27;3.50;;;;;;;;;;5033083;28;20068;-82
2022/12/26 06:20:46;;;;;;;11.02;3.67;;;;;;;;;;5039615;28;20056;-83
2022/12/26 06:23:13;;;;;;;3.70;3.30;;;;;;;;;;5034286;28;20050;-82
2022/12/26 06:25:41;;;;;;;6.90;3.20;;;;;;;;;;4999806;28;20053;-82
2022/12/26 06:28:08;;;;;;;9.65;3.67;;;;;;;;;;5032790;28;20140;-82
2022/12/26 06:30:35;;;;;;;8.75;4.13;;;;;;;;;;5032854;28;20048;-82
2022/12/26 06:33:03;;;;;;;5.53;3.08;;;;;;;;;;5014094;28;20403;-82
2022/12/26 06:35:33;;;;;;;7.15;4.03;;;;;;;;;;5031713;28;20464;-83
2022/12/26 06:38:00;;;;;;;9.57;3.92;;;;;;;;;;5011464;28;20509;-82
2022/12/26 06:40:27;;;;;;;10.93;3.92;;;;;;;;;;5028465;28;20054;-82
2022/12/26 06:42:55;;;;;;;4.00;3.33;;;;;;;;;;5021649;28;20072;-82
2022/12/26 06:45:22;;;;;;;7.07;3.90;;;;;;;;;;5019914;28;20053;-82
2022/12/26 06:47:49;;;;;;;10.52;3.55;;;;;;;;;;5034667;28;20386;-82
2022/12/26 06:50:17;;;;;;;4.00;3.70;;;;;;;;;;5034041;28;20063;-82
2022/12/26 06:52:44;;;;;;;4.40;3.47;;;;;;;;;;5028569;28;20041;-81
2022/12/26 06:55:12;;;;;;;8.40;4.03;;;;;;;;;;5027801;28;20037;-82
2022/12/26 06:57:39;;;;;;;7.78;4.28;;;;;;;;;;5025219;28;20149;-82
2022/12/26 07:00:09;;;;;;;7.45;4.75;;;;;;;;;;5026894;28;20073;-84
2022/12/26 07:02:37;;;;;;;13.27;4.78;;;;;;;;;;5028703;28;20109;-82
2022/12/26 07:05:05;;;;;;;11.15;4.80;;;;;;;;;;5040164;28;20046;-83
2022/12/26 07:07:32;;;;;;;6.82;3.83;;;;;;;;;;5014171;28;20045;-82
2022/12/26 07:09:59;;;;;;;14.02;4.82;;;;;;;;;;5035493;28;20041;-82
2022/12/26 07:12:27;;;;;;;18.65;5.20;;;;;;;;;;5037365;28;20048;-82
2022/12/26 07:14:54;;;;;;;12.15;5.18;;;;;;;;;;5029933;28;20034;-83
2022/12/26 07:17:29;;;;;;;21.02;4.93;;;;;;;;;;5023702;28;20425;-83
2022/12/26 07:19:56;;;;;;;7.53;3.90;;;;;;;;;;5028356;28;20045;-83
2022/12/26 07:22:24;;;;;;;10.73;4.72;;;;;;;;;;5029905;28;20113;-81
2022/12/26 07:24:51;;;;;;;8.68;5.10;;;;;;;;;;5042236;28;20117;-81
2022/12/26 07:27:18;;;;;;;11.60;5.22;;;;;;;;;;5030380;28;20075;-82
2022/12/26 07:29:46;;;;;;;7.28;5.07;;;;;;;;;;5015553;28;20057;-83
2022/12/26 07:32:13;;;;;;;11.05;4.93;;;;;;;;;;5025089;28;20049;-82
2022/12/26 07:34:41;;;;;;;10.18;4.93;;;;;;;;;;5027639;28;20375;-82
2022/12/26 07:37:09;;;;;;;12.27;4.85;;;;;;;;;;5013181;28;20060;-82
2022/12/26 07:39:36;;;;;;;12.95;4.68;;;;;;;;;;5030459;28;20095;-83
2022/12/26 07:42:04;;;;;;;10.63;5.45;;;;;;;;;;5031041;28;20041;-83
2022/12/26 07:44:32;;;;;;;7.72;4.63;;;;;;;;;;5016552;28;20109;-82
2022/12/26 07:47:00;;;;;;;20.50;5.13;;;;;;;;;;5013917;28;20049;-82
2022/12/26 07:49:28;;;;;;;5.45;4.63;;;;;;;;;;5018683;28;20053;-82
2022/12/26 07:51:56;;;;;;;15.27;5.60;;;;;;;;;;5015258;28;20120;-82
2022/12/26 07:54:25;;;;;;;13.35;5.30;;;;;;;;;;5016576;28;20056;-82
2022/12/26 07:56:53;;;;;;;34.60;5.40;;;;;;;;;;5034569;28;20037;-82
2022/12/26 07:59:40;;;;;;;7.90;5.10;;;;;;;;;;5019254;28;20528;-82
2022/12/26 08:02:09;;;;;;;16.25;5.70;;;;;;;;;;4999275;28;20046;-82
2022/12/26 08:04:37;;;;;;;13.35;5.22;;;;;;;;;;5031907;28;20210;-82
2022/12/26 08:07:05;;;;;;;23.90;6.47;;;;;;;;;;5041384;28;20095;-82
2022/12/26 08:09:32;;;;;;;14.80;5.45;;;;;;;;;;5033663;28;20041;-82
2022/12/26 08:11:59;;;;;;;33.45;5.63;;;;;;;;;;5027282;28;20049;-82
2022/12/26 08:14:26;;;;;;;20.73;4.97;;;;;;;;;;5021847;28;20069;-83
2022/12/26 08:16:54;;;;;;;8.27;5.28;;;;;;;;;;5002037;28;20425;-82
2022/12/26 08:19:22;;;;;;;14.25;4.45;;;;;;;;;;5009854;28;22323;-82
2022/12/26 08:21:49;;;;;;;15.82;6.25;;;;;;;;;;5004709;28;20354;-83
2022/12/26 08:24:16;;;;;;;16.33;5.13;;;;;;;;;;5000360;28;20131;-82
2022/12/26 08:26:44;;;;;;;13.13;5.40;;;;;;;;;;5009720;28;20057;-83
2022/12/26 08:29:11;;;;;;;18.08;5.32;;;;;;;;;;4999121;28;20132;-84
2022/12/26 08:31:39;;;;;;;9.63;4.50;;;;;;;;;;4982620;28;20421;-84
2022/12/26 08:34:06;;;;;;;12.65;5.68;;;;;;;;;;5014243;28;20604;-84
2022/12/26 08:36:33;;;;;;;14.93;4.68;;;;;;;;;;5007006;28;20355;-85
2022/12/26 08:39:01;;;;;;;7.25;4.85;;;;;;;;;;5002455;28;20058;-86
2022/12/26 08:41:29;;;;;;;6.88;5.20;;;;;;;;;;4997931;28;20431;-85
2022/12/26 08:43:57;;;;;;;12.52;5.18;;;;;;;;;;5007847;28;20103;-85
2022/12/26 08:46:45;;;;;;;11.55;4.75;;;;;;;;;;5002436;28;20054;-83
2022/12/26 08:49:12;;;;;;;10.73;5.90;;;;;;;;;;5036851;28;20044;-85
2022/12/26 08:51:39;;;;;;;17.55;5.63;;;;;;;;;;5034941;28;20041;-84
2022/12/26 08:54:07;;;;;;;9.45;6.63;;;;;;;;;;5032719;28;20520;-83
2022/12/26 08:56:34;;;;;;;49.15;25.75;;;;;;;;;;5011268;28;20148;-84
2022/12/26 08:59:01;;;;;;;14.82;7.22;;;;;;;;;;5031264;28;20034;-83
2022/12/26 09:01:30;;;;;;;7.93;6.43;;;;;;;;;;5015937;28;20069;-84
2022/12/26 09:03:59;;;;;;;7.07;5.82;;;;;;;;;;5031441;28;20038;-83
2022/12/26 09:06:27;;;;;;;6.75;5.93;;;;;;;;;;5014689;28;20053;-84
2022/12/26 09:08:55;;;;;;;9.27;5.95;;;;;;;;;;5031777;28;20587;-83
2022/12/26 09:11:25;;;;;;;6.93;5.20;;;;;;;;;;5032457;28;20164;-84
2022/12/26 09:13:53;;;;;;;6.57;5.30;;;;;;;;;;5017024;28;20048;-84
2022/12/26 09:16:25;;;;;;;6.35;5.72;;;;;;;;;;5016793;28;20378;-85
2022/12/26 09:18:52;;;;;;;;;;;;;;;;;;5032142;28;20041;-84
2022/12/26 09:21:20;;;;;;;5.75;5.22;;;;;;;;;;5012962;28;19921;-83
2022/12/26 09:23:47;;;;;;;7.05;6.38;;;;;;;;;;5028395;28;20041;-83
2022/12/26 09:26:16;;;;;;;9.15;5.97;;;;;;;;;;5029348;28;20042;-84
2022/12/26 09:28:44;;;;;;;6.70;5.80;;;;;;;;;;5033062;28;20041;-83
2022/12/26 09:31:19;;;;;;;5.80;5.20;;;;;;;;;;5031783;28;20050;-83
2022/12/26 09:33:47;;;;;;;9.32;7.05;;;;;;;;;;5013475;28;20558;-83
2022/12/26 09:36:16;;;;;;;15.95;7.38;;;;;;;;;;5013230;28;20136;-84
2022/12/26 09:38:44;;;;;;;12.18;7.85;;;;;;;;;;5028662;28;20041;-84
2022/12/26 09:41:31;;;;;;;7.93;6.57;;;;;;;;;;4995804;28;20136;-84
2022/12/26 09:44:06;;;;;;;8.80;6.88;;;;;;;;;;5027728;28;20370;-83
2022/12/26 09:46:51;;;;;;;7.28;6.15;;;;;;;;;;5031049;28;20050;-84
2022/12/26 09:49:30;;;;;;;10.38;5.85;;;;;;;;;;5016842;28;20088;-83
2022/12/26 09:51:59;;;;;;;7.28;6.55;;;;;;;;;;4999568;28;20088;-84
2022/12/26 09:54:32;;;;;;;8.45;6.80;;;;;;;;;;5000436;28;20055;-84
2022/12/26 09:57:01;;;;;;;9.40;7.03;;;;;;;;;;5007242;28;20053;-85
2022/12/26 09:59:44;;;;;;;7.20;6.50;;;;;;;;;;5054471;23;20057;-83
2022/12/26 10:02:16;;;;;;;6.93;6.18;;;;;;;;;;5033062;28;20045;-83
2022/12/26 10:08:59;;;;;;;5.43;4.93;;;;;;;;;;5036412;28;20065;-83
2022/12/26 10:11:34;;;;;;;7.78;6.45;;;;;;;;;;5022830;28;20532;-83
2022/12/26 10:14:11;;;;;;;7.32;6.47;;;;;;;;;;5017958;28;20049;-82
2022/12/26 10:17:10;;;;;;;8.43;6.60;;;;;;;;;;5017514;28;20092;-82
2022/12/26 10:19:47;;;;;;;7.18;6.38;;;;;;;;;;5011123;28;20066;-83
2022/12/26 10:22:15;;;;;;;7.10;5.97;;;;;;;;;;5015036;28;20506;-83
2022/12/26 10:24:43;;;;;;;8.05;6.40;;;;;;;;;;4992489;28;20377;-83
2022/12/26 10:27:17;;;;;;;6.88;6.18;;;;;;;;;;5007989;28;20115;-83
2022/12/26 10:29:52;;;;;;;7.18;6.43;;;;;;;;;;5008462;28;20100;-83
2022/12/26 10:32:30;;;;;;;8.32;6.93;;;;;;;;;;4991417;28;20061;-83
2022/12/26 10:34:58;;;;;;;7.05;6.43;;;;;;;;;;5007816;28;20054;-83
2022/12/26 10:37:29;;;;;;;8.15;6.90;;;;;;;;;;5009680;28;20077;-83
2022/12/26 10:40:13;;;;;;;7.80;7.00;;;;;;;;;;4975960;28;20132;-83
2022/12/26 10:42:42;;;;;;;9.25;8.23;;;;;;;;;;4995315;28;20433;-83
2022/12/26 10:45:17;;;;;;;8.50;7.60;;;;;;;;;;5027247;28;20056;-83
2022/12/26 10:47:45;;;;;;;10.15;8.35;;;;;;;;;;5010376;28;20575;-83
2022/12/26 10:50:17;;;;;;;7.55;6.82;;;;;;;;;;5028411;28;20052;-83
2022/12/26 10:52:51;;;;;;;9.40;6.78;;;;;;;;;;5019664;28;20045;-83
2022/12/26 10:55:19;;;;;;;8.77;7.53;;;;;;;;;;5021660;28;20517;-82
2022/12/26 10:57:58;;;;;;;8.88;7.60;;;;;;;;;;5013443;28;20113;-82
2022/12/26 11:00:26;;;;;;;7.68;6.93;;;;;;;;;;5012498;28;20149;-83
2022/12/26 11:03:05;;;;;;;9.27;7.78;;;;;;;;;;5025005;28;20071;-81
2022/12/26 11:05:34;;;;;;;7.53;6.82;;;;;;;;;;5031121;28;20442;-82
2022/12/26 11:08:24;;;;;;;7.30;6.40;;;;;;;;;;5030056;28;20034;-82
2022/12/26 11:11:04;;;;;;;8.15;6.88;;;;;;;;;;5034817;28;20042;-81
2022/12/26 11:13:34;;;;;;;6.97;6.32;;;;;;;;;;5038135;28;20088;-82
2022/12/26 11:16:01;;;;;;;7.80;7.05;;;;;;;;;;5011939;28;20044;-82
2022/12/26 11:18:45;;;;;;;7.43;6.72;;;;;;;;;;5009485;28;20054;-82
2022/12/26 11:21:19;;;;;;;6.63;5.93;;;;;;;;;;5006120;28;20042;-82
2022/12/26 11:24:14;;;;;;;8.90;6.75;;;;;;;;;;5009182;28;20444;-82
2022/12/26 11:26:41;;;;;;;6.63;6.03;;;;;;;;;;5038713;28;20049;-82
2022/12/26 11:29:19;;;;;;;6.93;6.32;;;;;;;;;;5023898;28;20050;-82
2022/12/26 11:31:58;;;;;;;7.57;6.40;;;;;;;;;;5011496;28;20053;-83
2022/12/26 11:34:31;;;;;;;6.10;5.50;;;;;;;;;;5028858;28;20457;-82
2022/12/26 11:36:58;;;;;;;6.43;5.82;;;;;;;;;;5014660;28;20541;-83
2022/12/26 11:39:29;;;;;;;6.13;5.53;;;;;;;;;;5025473;28;20057;-83
2022/12/26 11:41:57;;;;;;;6.75;6.00;;;;;;;;;;5012855;28;20042;-82
2022/12/26 11:44:28;;;;;;;6.45;5.80;;;;;;;;;;5011592;28;20060;-82
2022/12/26 11:46:55;;;;;;;7.28;6.47;;;;;;;;;;5033047;28;20092;-82
2022/12/26 11:49:43;;;;;;;6.53;5.93;;;;;;;;;;5016860;28;20060;-81
2022/12/26 11:52:31;;;;;;;6.05;5.55;;;;;;;;;;5017034;28;20049;-81
2022/12/26 11:54:58;;;;;;;6.30;5.70;;;;;;;;;;5018669;28;20479;-82
2022/12/26 11:57:32;;;;;;;6.70;6.10;;;;;;;;;;5025737;28;20452;-82
2022/12/26 12:00:17;;;;;;;6.88;6.18;;;;;;;;;;5025089;28;20037;-82
2022/12/26 12:02:44;;;;;;;6.63;6.03;;;;;;;;;;4990362;28;20611;-82
2022/12/26 12:05:14;;;;;;;7.30;6.60;;;;;;;;;;5003687;28;20072;-82
2022/12/26 12:07:53;;;;;;;6.95;6.28;;;;;;;;;;5006608;28;20045;-82
2022/12/26 12:10:41;;;;;;;6.28;5.68;;;;;;;;;;5014070;28;20141;-82
2022/12/26 12:13:21;;;;;;;6.13;5.60;;;;;;;;;;5011579;28;20084;-82
2022/12/26 12:16:04;;;;;;;8.27;7.28;;;;;;;;;;4995605;28;20050;-82
2022/12/26 12:18:31;;;;;;;7.15;6.40;;;;;;;;;;5022503;28;20050;-81
2022/12/26 12:21:06;;;;;;;7.95;6.70;;;;;;;;;;4996311;28;20462;-82
2022/12/26 12:23:43;;;;;;;7.05;6.35;;;;;;;;;;5024114;28;20520;-82
2022/12/26 12:26:31;;;;;;;7.82;6.63;;;;;;;;;;5030665;28;20112;-82
2022/12/26 12:29:13;;;;;;;8.50;7.20;;;;;;;;;;5015125;28;20096;-82
2022/12/26 12:32:01;;;;;;;11.73;8.27;;;;;;;;;;4998817;28;20191;-82
2022/12/26 12:34:40;;;;;;;7.50;6.80;;;;;;;;;;5030406;28;20057;-82
2022/12/26 12:37:42;;;;;;;8.43;6.90;;;;;;;;;;5029520;28;20110;-83
2022/12/26 12:40:14;;;;;;;6.72;5.97;;;;;;;;;;4990814;28;20057;-80
2022/12/26 12:42:47;;;;;;;7.15;6.45;;;;;;;;;;5009019;28;20049;-80
2022/12/26 12:45:18;;;;;;;7.40;5.72;;;;;;;;;;5010410;28;20509;-82
2022/12/26 12:48:04;;;;;;;10.35;6.53;;;;;;;;;;5033447;28;20542;-82
2022/12/26 12:50:39;;;;;;;6.70;6.10;;;;;;;;;;5002913;28;20045;-81
2022/12/26 12:53:25;;;;;;;6.75;6.10;;;;;;;;;;5009019;28;20042;-82
2022/12/26 12:56:11;;;;;;;7.18;6.18;;;;;;;;;;5034261;28;20041;-81
2022/12/26 12:58:38;;;;;;;6.40;5.80;;;;;;;;;;5041707;28;20056;-81
2022/12/26 13:01:12;;;;;;;9.25;6.22;;;;;;;;;;5026566;28;20033;-82
2022/12/26 13:03:57;;;;;;;6.70;6.00;;;;;;;;;;5031695;28;20073;-82
2022/12/26 13:06:27;;;;;;;7.65;6.15;;;;;;;;;;5024719;28;20513;-82
2022/12/26 13:09:07;;;;;;;7.65;6.95;;;;;;;;;;5008299;28;20061;-82
2022/12/26 13:11:40;;;;;;;7.97;6.75;;;;;;;;;;5014311;28;20064;-81
2022/12/26 13:14:14;;;;;;;7.00;6.20;;;;;;;;;;5025433;28;20124;-82
2022/12/26 13:16:43;;;;;;;11.55;6.50;;;;;;;;;;5026777;28;20050;-82
2022/12/26 13:19:23;;;;;;;7.40;6.70;;;;;;;;;;5008422;28;20059;-82
2022/12/26 13:21:52;;;;;;;8.98;6.90;;;;;;;;;;5028666;28;20079;-82
2022/12/26 13:24:26;;;;;;;7.43;6.72;;;;;;;;;;5018757;28;20107;-82
2022/12/26 13:26:53;;;;;;;9.18;7.47;;;;;;;;;;5036189;28;20042;-82
2022/12/26 13:29:38;;;;;;;8.70;7.82;;;;;;;;;;5019579;28;20448;-81
2022/12/26 13:32:14;;;;;;;10.90;8.15;;;;;;;;;;5029883;28;20446;-81
2022/12/26 13:34:43;;;;;;;9.52;8.50;;;;;;;;;;5031243;28;20119;-81
2022/12/26 13:37:29;;;;;;;10.32;9.13;;;;;;;;;;5029457;28;20045;-81
2022/12/26 13:39:56;;;;;;;10.45;8.43;;;;;;;;;;5013463;28;20060;-81
2022/12/26 13:45:34;;;;;;;14.00;8.77;;;;;;;;;;5028714;28;20056;-81
2022/12/26 13:48:22;;;;;;;10.30;9.07;;;;;;;;;;5030395;28;20042;-82
2022/12/26 13:50:51;;;;;;;10.70;9.23;;;;;;;;;;5012823;28;20450;-82
2022/12/26 13:53:25;;;;;;;12.63;10.65;;;;;;;;;;5013028;28;20604;-82
2022/12/26 13:55:57;;;;;;;14.60;10.40;;;;;;;;;;5027987;28;20124;-82
2022/12/26 13:58:43;;;;;;;14.35;10.68;;;;;;;;;;5029430;28;20454;-83
2022/12/26 14:01:37;;;;;;;17.85;13.88;;;;;;;;;;5025455;28;20056;-82
2022/12/26 14:04:07;;;;;;;18.85;15.15;;;;;;;;;;4996495;28;20045;-83
2022/12/26 14:06:40;;;;;;;25.65;18.90;;;;;;;;;;5027204;28;20413;-83
2022/12/26 14:09:20;;;;;;;22.88;17.13;;;;;;;;;;5024206;28;20111;-83
2022/12/26 14:11:56;;;;;;;19.77;16.08;;;;;;;;;;5009796;28;20149;-83
2022/12/26 14:14:41;;;;;;;20.08;13.93;;;;;;;;;;5029476;28;20448;-83
2022/12/26 14:17:22;;;;;;;17.40;12.90;;;;;;;;;;5013040;28;20121;-83
2022/12/26 14:19:49;;;;;;;15.95;12.88;;;;;;;;;;4994528;28;20045;-83
2022/12/26 14:22:21;;;;;;;15.85;11.60;;;;;;;;;;5027605;28;20121;-83
2022/12/26 14:25:02;;;;;;;13.10;11.63;;;;;;;;;;5026345;28;20041;-83
2022/12/26 14:27:33;;;;;;;13.75;12.05;;;;;;;;;;5020445;28;20041;-83
2022/12/26 14:30:00;;;;;;;15.90;12.68;;;;;;;;;;4990786;28;20052;-84
2022/12/26 14:32:34;;;;;;;19.90;13.98;;;;;;;;;;4990169;28;20050;-85
2022/12/26 14:35:25;;;;;;;14.07;12.57;;;;;;;;;;4974340;28;20054;-85
2022/12/26 14:38:04;;;;;;;16.75;12.27;;;;;;;;;;4981033;28;20088;-85
2022/12/26 14:40:34;;;;;;;14.70;11.43;;;;;;;;;;5007430;28;20450;-87
2022/12/26 14:43:10;;;;;;;16.50;14.25;;;;;;;;;;4990860;28;20137;-86
2022/12/26 14:45:38;;;;;;;15.77;12.95;;;;;;;;;;4992065;28;20574;-85
2022/12/26 14:48:12;;;;;;;23.70;15.43;;;;;;;;;;5007178;28;20506;-84
2022/12/26 14:50:39;;;;;;;18.80;14.27;;;;;;;;;;5006616;28;20077;-85
2022/12/26 14:53:20;;;;;;;17.25;13.13;;;;;;;;;;5006610;28;20081;-87
2022/12/26 14:55:49;;;;;;;18.92;14.88;;;;;;;;;;5012960;28;20044;-85
2022/12/26 14:58:31;;;;;;;21.70;15.00;;;;;;;;;;4997402;28;20048;-86
2022/12/26 15:01:14;;;;;;;17.08;13.63;;;;;;;;;;4998647;28;20510;-85
2022/12/26 15:04:00;;;;;;;26.65;15.95;;;;;;;;;;5025855;28;20050;-87
2022/12/26 15:06:47;;;;;;;20.50;15.93;;;;;;;;;;5011350;28;20412;-87
2022/12/26 15:09:20;;;;;;;15.98;14.13;;;;;;;;;;5029216;28;20149;-86
2022/12/26 15:11:51;;;;;;;17.73;14.15;;;;;;;;;;4990870;28;20061;-84
2022/12/26 15:14:38;;;;;;;16.90;14.63;;;;;;;;;;4989798;28;20065;-84
2022/12/26 15:17:26;;;;;;;15.32;12.15;;;;;;;;;;5006023;28;20046;-85
2022/12/26 15:19:53;;;;;;;19.77;14.05;;;;;;;;;;4983619;28;20045;-85
2022/12/26 15:22:40;;;;;;;18.15;13.63;;;;;;;;;;5024918;28;20045;-84
2022/12/26 15:25:20;;;;;;;14.43;12.50;;;;;;;;;;5009216;28;20064;-84
2022/12/26 15:28:00;;;;;;;22.08;12.73;;;;;;;;;;5009407;28;20061;-84
2022/12/26 15:30:34;;;;;;;12.93;11.63;;;;;;;;;;5026084;28;20056;-85
2022/12/26 15:33:04;;;;;;;16.35;11.95;;;;;;;;;;5009377;28;20041;-84
2022/12/26 15:35:35;;;;;;;12.68;11.32;;;;;;;;;;5026690;28;20087;-85
2022/12/26 15:38:05;;;;;;;14.25;11.82;;;;;;;;;;5026614;28;20060;-84
2022/12/26 15:40:35;;;;;;;18.05;11.73;;;;;;;;;;5029567;28;20049;-84
2022/12/26 15:43:18;;;;;;;17.50;12.52;;;;;;;;;;5013123;28;20076;-84
2022/12/26 15:45:53;;;;;;;17.02;11.65;;;;;;;;;;5014800;28;20103;-85
2022/12/26 15:48:35;;;;;;;16.15;12.02;;;;;;;;;;5016019;28;20049;-86
2022/12/26 15:51:17;;;;;;;23.77;17.45;;;;;;;;;;5033554;28;20056;-85
2022/12/26 15:54:04;;;;;;;22.17;16.27;;;;;;;;;;5028934;28;20150;-84
2022/12/26 15:56:31;;;;;;;21.83;16.15;;;;;;;;;;5029084;28;20652;-85
2022/12/26 15:58:58;;;;;;;22.13;17.63;;;;;;;;;;5028528;28;20037;-84
2022/12/26 16:02:09;;;;;;;16.15;13.23;;;;;;;;;;5033418;28;20100;-83
2022/12/26 16:04:54;;;;;;;15.60;11.98;;;;;;;;;;5038016;28;20037;-85
2022/12/26 16:07:25;;;;;;;15.82;12.30;;;;;;;;;;5036938;28;20052;-84
2022/12/26 16:09:55;;;;;;;16.50;11.93;;;;;;;;;;5042360;28;20071;-84
2022/12/26 16:12:27;;;;;;;12.98;10.55;;;;;;;;;;5038785;28;20052;-84
2022/12/26 16:15:10;;;;;;;17.88;12.45;;;;;;;;;;5035947;28;20045;-85
2022/12/26 16:17:39;;;;;;;18.10;12.23;;;;;;;;;;5054437;28;20043;-84
2022/12/26 16:23:12;;;;;;;16.80;12.23;;;;;;;;;;5071617;28;20045;-85
2022/12/26 16:25:45;;;;;;;15.63;11.25;;;;;;;;;;5062372;28;20556;-84
2022/12/26 16:28:13;;;;;;;14.98;12.68;;;;;;;;;;5054980;28;20089;-85
2022/12/26 16:30:40;;;;;;;30.00;23.42;;;;;;;;;;5054368;28;20041;-84
2022/12/26 16:33:07;;;;;;;23.17;15.95;;;;;;;;;;5053248;28;20055;-85
2022/12/26 16:35:40;;;;;;;18.63;14.32;;;;;;;;;;5046641;28;20163;-84
2022/12/26 16:38:12;;;;;;;18.50;14.55;;;;;;;;;;5027425;28;20068;-84
2022/12/26 16:40:42;;;;;;;23.75;17.67;;;;;;;;;;5062915;28;20048;-85
2022/12/26 16:43:13;;;;;;;16.73;14.05;;;;;;;;;;5009545;28;20417;-86
2022/12/26 16:45:41;;;;;;;21.73;15.77;;;;;;;;;;5003201;28;20060;-83
2022/12/26 16:48:08;;;;;;;19.02;13.93;;;;;;;;;;5055366;28;20049;-85
2022/12/26 16:50:43;;;;;;;17.60;12.30;;;;;;;;;;5034020;28;20053;-85
2022/12/26 16:53:12;;;;;;;11.07;9.95;;;;;;;;;;5023481;28;20051;-84
2022/12/26 16:55:40;;;;;;;13.98;10.98;;;;;;;;;;5015683;28;20304;-83
2022/12/26 16:58:31;;;;;;;13.93;11.77;;;;;;;;;;5006732;28;20046;-83
2022/12/26 17:01:01;;;;;;;14.40;11.38;;;;;;;;;;5028880;28;20065;-85
2022/12/26 17:03:34;;;;;;;16.23;12.48;;;;;;;;;;5014768;28;20534;-83
2022/12/26 17:06:05;;;;;;;16.60;12.60;;;;;;;;;;5016749;28;20046;-83
2022/12/26 17:08:33;;;;;;;14.85;11.90;;;;;;;;;;5020009;28;20177;-83
2022/12/26 17:11:00;;;;;;;12.45;9.88;;;;;;;;;;5017964;28;20073;-85
2022/12/26 17:13:30;;;;;;;14.15;12.32;;;;;;;;;;5035216;28;20144;-83
2022/12/26 17:16:00;;;;;;;13.52;11.57;;;;;;;;;;5035161;28;20051;-83
2022/12/26 17:18:36;;;;;;;11.50;10.07;;;;;;;;;;5016831;28;20054;-83
2022/12/26 17:21:24;;;;;;;13.35;11.73;;;;;;;;;;5033684;28;20476;-85